Time;durP1;ratioP1;P1;durP2;ratioP2;P2;SDS_P1;SDS_P2;PMS_P1;PMS_P2;Temp;Humidity;BMP_temperature;BMP_pressure;BME280_temperature;BME280_humidity;BME280_pressure;Samples;Min_cycle;Max_cycle;Signal;HPM_P1;HPM_P2
2022/07/14 00:00:12;;;;;;;190.90;182.10;;;21.30;99.90;;;21.13;89.73;100510.38;4933237;29;20210;-76
2022/07/14 00:02:40;;;;;;;201.23;191.82;;;21.20;99.90;;;20.99;91.03;100518.88;4932968;29;20213;-77
2022/07/14 00:05:08;;;;;;;201.23;191.70;;;21.10;99.90;;;20.98;89.58;100515.31;4914609;29;20685;-77
2022/07/14 00:07:37;;;;;;;193.95;184.75;;;21.00;99.90;;;21.14;88.71;100533.63;4923446;29;20217;-77
2022/07/14 00:10:05;;;;;;;189.90;181.38;;;21.00;99.90;;;21.09;88.91;100536.47;4931438;29;20222;-77
2022/07/14 00:12:33;;;;;;;210.40;200.63;;;21.00;99.90;;;21.07;89.01;100532.94;4931554;29;20229;-77
2022/07/14 00:15:01;;;;;;;210.85;200.77;;;21.00;99.90;;;21.03;88.97;100528.59;4931726;29;20245;-77
2022/07/14 00:17:29;;;;;;;204.50;195.27;;;20.90;99.90;;;20.96;89.57;100532.41;4932319;29;20199;-76
2022/07/14 00:19:57;;;;;;;184.20;175.32;;;20.90;99.90;;;20.69;92.64;100547.56;4920489;29;20218;-76
2022/07/14 00:22:27;;;;;;;168.10;160.60;;;20.80;99.90;;;20.63;91.96;100543.28;4921510;29;20210;-76
2022/07/14 00:24:54;;;;;;;175.85;167.57;;;20.70;99.90;;;20.74;90.08;100546.50;4930659;29;20241;-76
2022/07/14 00:27:22;;;;;;;170.27;162.57;;;20.60;99.90;;;20.65;93.50;100572.78;4923341;29;20624;-76
2022/07/14 00:29:50;;;;;;;136.80;130.68;;;20.60;99.90;;;20.53;94.35;100571.34;4931551;29;20577;-76
2022/07/14 00:32:18;;;;;;;124.78;119.25;;;20.60;99.90;;;20.49;93.84;100584.91;4926250;29;20214;-76
2022/07/14 00:34:46;;;;;;;125.47;119.57;;;20.50;99.90;;;20.38;94.84;100588.75;4897339;29;20254;-77
2022/07/14 00:37:15;;;;;;;141.40;135.10;;;20.40;99.90;;;20.39;96.48;100619.22;4908608;29;20209;-77
2022/07/14 00:39:55;;;;;;;161.10;152.85;;;20.30;99.90;;;20.91;93.18;100634.72;4913710;29;20199;-76
2022/07/14 00:42:48;;;;;;;154.73;147.45;;;20.40;99.90;;;20.90;93.05;100632.97;4931371;29;20198;-76
2022/07/14 00:45:18;;;;;;;186.55;178.10;;;20.50;99.90;;;21.00;92.45;100622.81;4916071;29;20228;-76
2022/07/14 00:47:48;;;;;;;193.90;185.20;;;20.50;99.90;;;20.79;94.56;100624.31;4927794;29;20213;-75
2022/07/14 00:50:18;;;;;;;181.88;173.75;;;20.60;99.90;;;20.63;95.73;100636.44;4931890;29;20211;-76
2022/07/14 00:52:48;;;;;;;188.88;180.23;;;20.50;99.90;;;20.79;95.18;100637.75;4919864;29;20206;-77
2022/07/14 00:55:18;;;;;;;199.23;190.25;;;20.50;99.90;;;20.82;95.01;100637.69;4916663;29;20241;-77
2022/07/14 00:57:50;;;;;;;242.30;231.32;;;20.50;99.90;;;20.77;94.12;100631.53;4929968;29;20208;-77
2022/07/14 01:00:18;;;;;;;228.68;218.75;;;20.50;99.90;;;20.66;96.94;100644.41;4911324;29;20207;-76
2022/07/14 01:02:46;;;;;;;180.50;172.48;;;19.70;99.90;;;20.32;98.32;100639.09;4930141;29;20664;-77
2022/07/14 01:05:17;;;;;;;158.30;150.85;;;20.40;99.90;;;20.33;99.11;100640.84;4926206;29;20246;-76
2022/07/14 01:07:47;;;;;;;163.45;156.13;;;20.30;99.90;;;20.48;98.21;100659.25;4922007;29;20202;-76
2022/07/14 01:10:15;;;;;;;177.98;170.07;;;20.20;99.90;;;20.14;100.00;100652.09;4907390;29;20219;-77
2022/07/14 01:12:49;;;;;;;180.13;171.90;;;20.20;99.90;;;20.05;100.00;100660.38;4930340;29;20211;-76
2022/07/14 01:15:19;;;;;;;193.43;184.27;;;20.10;99.90;;;20.04;100.00;100664.00;4937474;29;20237;-76
2022/07/14 01:17:48;;;;;;;188.10;179.77;;;20.00;99.90;;;19.98;100.00;100682.94;4904074;29;20198;-76
2022/07/14 01:20:18;;;;;;;162.57;155.30;;;20.00;99.90;;;19.94;100.00;100665.16;4921971;29;20209;-76
2022/07/14 01:22:47;;;;;;;129.35;123.35;;;19.90;99.90;;;20.19;99.86;100684.19;4919441;29;20238;-76
2022/07/14 01:25:18;;;;;;;133.48;127.65;;;19.90;99.90;;;20.19;100.00;100694.06;4918650;29;20241;-76
2022/07/14 01:27:47;;;;;;;132.38;126.25;;;19.90;99.90;;;20.14;100.00;100691.47;4934478;29;20583;-76
2022/07/14 01:30:15;;;;;;;122.07;116.78;;;19.90;99.90;;;19.88;100.00;100696.63;4919854;29;20214;-76
2022/07/14 01:32:44;;;;;;;139.25;133.18;;;19.90;99.90;;;19.86;100.00;100691.31;4933534;29;20214;-77
2022/07/14 01:35:12;;;;;;;135.15;129.25;;;19.80;99.90;;;19.76;100.00;100693.34;4934218;29;20230;-76
2022/07/14 01:37:40;;;;;;;138.10;131.98;;;19.70;99.90;;;19.85;100.00;100696.72;4912790;29;20235;-77
2022/07/14 01:40:10;;;;;;;144.98;138.43;;;19.70;99.90;;;19.66;100.00;100693.59;4933110;29;20214;-76
2022/07/14 01:42:38;;;;;;;148.48;141.95;;;19.70;99.90;;;19.70;100.00;100703.34;4918118;29;20217;-76
2022/07/14 01:45:09;;;;;;;149.48;142.70;;;19.60;99.90;;;19.59;100.00;100706.28;4915596;29;20730;-76
2022/07/14 01:47:37;;;;;;;128.77;122.75;;;19.50;99.90;;;19.72;100.00;100731.03;4934184;29;20569;-76
2022/07/14 01:50:06;;;;;;;118.03;112.97;;;19.50;99.90;;;19.68;100.00;100740.06;4915466;29;20211;-76
2022/07/14 01:52:38;;;;;;;114.78;109.80;;;19.50;99.90;;;19.60;100.00;100740.25;4911980;29;20211;-76
2022/07/14 01:55:07;;;;;;;128.80;123.40;;;19.50;99.90;;;19.47;100.00;100725.28;4917852;29;20245;-76
2022/07/14 01:57:36;;;;;;;135.35;129.77;;;19.40;99.90;;;20.03;100.00;100755.31;4940449;29;20217;-76
2022/07/14 02:00:05;;;;;;;128.88;123.32;;;19.50;99.90;;;19.85;100.00;100736.97;4929640;29;20445;-76
2022/07/14 02:02:44;;;;;;;137.90;131.75;;;19.50;99.90;;;19.85;100.00;100745.03;4934074;29;20206;-76
2022/07/14 02:05:14;;;;;;;122.97;117.20;;;19.50;99.90;;;19.52;100.00;100743.97;4906355;29;20227;-76
2022/07/14 02:07:43;;;;;;;113.95;109.03;;;19.50;99.90;;;19.55;100.00;100731.41;4919706;29;20223;-76
2022/07/14 02:13:24;;;;;;;126.03;120.07;;;19.40;99.90;;;19.78;100.00;100746.97;4932957;29;20211;-76
2022/07/14 02:15:53;;;;;;;127.18;121.80;;;19.40;99.90;;;20.16;100.00;100759.47;4918323;29;20245;-76
2022/07/14 02:18:21;;;;;;;124.47;119.00;;;19.60;99.90;;;20.16;100.00;100742.47;4917748;29;20211;-76
2022/07/14 02:20:50;;;;;;;123.82;118.32;;;19.70;99.90;;;19.97;100.00;100750.09;4931822;29;20211;-77
2022/07/14 02:23:18;;;;;;;129.27;123.65;;;19.70;99.90;;;19.88;100.00;100756.56;4914796;29;20218;-76
2022/07/14 02:25:47;;;;;;;134.15;127.95;;;19.60;99.90;;;19.74;100.00;100759.59;4920977;29;20233;-75
2022/07/14 02:28:16;;;;;;;120.85;115.47;;;19.50;99.90;;;19.66;100.00;100758.00;4926280;29;20206;-76
2022/07/14 02:30:46;;;;;;;110.85;106.05;;;19.50;99.90;;;19.68;100.00;100783.00;4913726;29;20215;-75
2022/07/14 02:33:14;;;;;;;106.35;101.80;;;19.40;99.90;;;19.72;100.00;100780.19;4907364;29;20229;-76
2022/07/14 02:35:42;;;;;;;90.82;86.90;;;19.50;99.90;;;19.88;100.00;100782.53;4931202;29;20245;-76
2022/07/14 02:38:10;;;;;;;114.72;109.55;;;19.50;99.90;;;19.83;100.00;100789.81;4926780;29;20214;-77
2022/07/14 02:40:37;;;;;;;118.18;113.07;;;19.50;99.90;;;19.85;100.00;100783.47;4916593;29;20218;-76
2022/07/14 02:43:05;;;;;;;118.53;113.05;;;19.50;99.90;;;19.60;100.00;100801.06;4926176;29;20218;-77
2022/07/14 02:45:34;;;;;;;129.30;123.65;;;19.50;99.90;;;19.23;100.00;100799.09;4917566;29;20230;-76
2022/07/14 02:48:03;;;;;;;148.30;141.90;;;19.30;99.90;;;19.19;100.00;100811.69;4915906;29;20214;-77
2022/07/14 02:50:31;;;;;;;164.55;157.73;;;19.20;99.90;;;19.26;100.00;100824.97;4929472;29;20209;-77
2022/07/14 02:52:59;;;;;;;127.47;122.03;;;19.10;99.90;;;19.22;100.00;100840.25;4909817;29;20222;-76
2022/07/14 02:55:34;;;;;;;127.70;122.07;;;19.10;99.90;;;19.11;100.00;100848.50;4895945;29;20617;-76
2022/07/14 02:58:04;;;;;;;121.03;115.90;;;19.10;99.90;;;18.80;100.00;100847.31;4926243;29;20218;-76
2022/07/14 03:00:33;;;;;;;128.18;122.82;;;18.90;99.90;;;18.70;100.00;100854.63;4913055;29;20215;-76
2022/07/14 03:03:06;;;;;;;134.95;128.57;;;18.80;99.90;;;18.66;100.00;100860.94;4915316;29;20214;-76
2022/07/14 03:05:34;;;;;;;138.50;132.15;;;18.70;99.90;;;18.61;100.00;100861.91;4917687;29;20250;-77
2022/07/14 03:08:02;;;;;;;142.98;135.75;;;18.60;99.90;;;18.54;100.00;100869.16;4917454;29;20209;-77
2022/07/14 03:10:31;;;;;;;153.25;146.40;;;18.60;99.90;;;18.55;100.00;100873.59;4907576;29;20217;-76
2022/07/14 03:12:59;;;;;;;144.70;138.60;;;18.50;99.90;;;18.42;100.00;100888.09;4947807;29;20206;-76
2022/07/14 03:15:29;;;;;;;137.27;130.63;;;18.40;99.90;;;18.38;100.00;100881.03;4927618;29;21003;-75
2022/07/14 03:17:57;;;;;;;167.52;160.55;;;18.40;99.90;;;18.36;100.00;100891.75;4923828;29;20659;-77
2022/07/14 03:20:25;;;;;;;146.43;139.25;;;18.40;99.90;;;18.31;100.00;100890.06;4902635;29;20210;-76
2022/07/14 03:22:53;;;;;;;128.70;123.30;;;18.30;99.90;;;18.36;100.00;100896.22;4916574;29;20230;-77
2022/07/14 03:25:24;;;;;;;149.32;143.00;;;18.30;99.90;;;18.37;100.00;100893.53;4929105;29;20242;-76
2022/07/14 03:27:53;;;;;;;134.60;128.43;;;18.20;99.90;;;18.23;100.00;100883.03;4933000;29;20218;-76
2022/07/14 03:30:26;;;;;;;152.18;145.40;;;18.30;99.90;;;18.32;100.00;100889.16;4917293;29;20209;-76
2022/07/14 03:32:56;;;;;;;166.82;159.98;;;18.20;99.90;;;18.23;100.00;100887.50;4937162;29;20229;-76
2022/07/14 03:35:24;;;;;;;157.05;150.45;;;18.20;99.90;;;18.11;100.00;100896.56;4916150;29;20273;-76
2022/07/14 03:37:54;;;;;;;147.10;140.82;;;18.10;99.90;;;18.07;100.00;100916.25;4932375;29;20202;-75
2022/07/14 03:40:42;;;;;;;142.95;136.90;;;18.00;99.90;;;18.10;100.00;100913.53;4923866;29;20223;-76
2022/07/14 03:43:11;;;;;;;144.80;138.95;;;18.00;99.90;;;18.00;100.00;100932.41;4907734;29;20222;-77
2022/07/14 03:45:40;;;;;;;152.60;145.98;;;18.10;99.90;;;17.86;100.00;100935.28;4927123;29;20237;-76
2022/07/14 03:48:09;;;;;;;140.52;134.68;;;18.00;99.90;;;17.86;100.00;100952.22;4915929;29;20219;-77
2022/07/14 03:50:42;;;;;;;147.35;141.05;;;17.90;99.90;;;18.10;100.00;100956.38;4930457;29;20218;-76
2022/07/14 03:53:11;;;;;;;183.68;175.52;;;17.90;99.90;;;18.08;100.00;100934.09;4905550;29;20207;-76
2022/07/14 03:55:42;;;;;;;220.43;210.63;;;17.90;99.90;;;18.02;100.00;100942.19;4930414;29;20257;-76
2022/07/14 03:58:19;;;;;;;160.73;154.13;;;17.90;99.90;;;18.02;100.00;100960.94;4916746;29;20203;-76
2022/07/14 04:00:47;;;;;;;159.00;152.07;;;17.80;99.90;;;18.05;100.00;100973.38;4916821;29;20221;-77
2022/07/14 04:03:16;;;;;;;173.95;166.70;;;17.80;99.90;;;17.85;100.00;100971.84;4933009;29;20202;-75
2022/07/14 04:05:45;;;;;;;182.57;174.48;;;17.80;99.90;;;17.89;100.00;100981.63;4916528;29;20238;-77
2022/07/14 04:08:16;;;;;;;205.27;196.93;;;17.80;99.90;;;17.92;100.00;100997.63;4932778;29;20698;-76
2022/07/14 04:11:04;;;;;;;177.52;170.10;;;17.80;99.90;;;17.94;100.00;100986.03;4912075;29;20687;-76
2022/07/14 04:13:35;;;;;;;183.43;175.77;;;17.80;99.90;;;17.97;100.00;101000.25;4916215;29;20213;-77
2022/07/14 04:16:03;;;;;;;141.65;135.85;;;17.80;99.90;;;18.08;100.00;100989.41;4915966;29;20715;-76
2022/07/14 04:18:36;;;;;;;156.85;150.20;;;17.80;99.90;;;18.07;100.00;100975.13;4913649;29;20224;-76
2022/07/14 04:21:07;;;;;;;159.70;153.00;;;17.80;99.90;;;18.13;100.00;100966.16;4906547;29;20207;-76
2022/07/14 04:23:37;;;;;;;179.10;170.93;;;17.90;99.90;;;18.22;100.00;100956.22;4924006;29;20214;-76
2022/07/14 04:26:07;;;;;;;178.40;170.40;;;17.90;99.90;;;18.18;100.00;100951.78;4917376;29;20245;-75
2022/07/14 04:28:37;;;;;;;168.77;161.40;;;17.90;99.90;;;18.28;100.00;100938.31;4926979;29;20211;-76
2022/07/14 04:31:07;;;;;;;160.02;153.05;;;17.90;99.90;;;18.23;100.00;100933.00;4930475;29;20222;-76
2022/07/14 04:33:38;;;;;;;158.30;151.50;;;18.00;99.90;;;18.20;100.00;100919.63;4925077;29;20339;-76
2022/07/14 04:36:09;;;;;;;136.10;130.35;;;18.00;99.90;;;18.32;100.00;100921.28;4913362;29;20245;-76
2022/07/14 04:38:38;;;;;;;154.77;148.50;;;18.00;99.90;;;18.40;100.00;100932.75;4915942;29;20217;-77
2022/07/14 04:41:06;;;;;;;162.55;155.98;;;18.10;99.90;;;18.41;100.00;100926.50;4924479;29;20282;-77
2022/07/14 04:43:38;;;;;;;145.68;139.43;;;18.10;99.90;;;18.53;100.00;100926.31;4930396;29;20208;-77
2022/07/14 04:46:09;;;;;;;190.65;182.60;;;18.20;99.90;;;18.59;100.00;100931.56;4934740;29;20230;-77
2022/07/14 04:54:19;;;;;;;181.60;174.07;;;18.40;99.90;;;18.79;100.00;100960.75;4923178;29;20218;-76
2022/07/14 04:57:06;;;;;;;169.05;162.00;;;18.40;99.90;;;18.88;100.00;100970.44;4933225;29;20245;-76
2022/07/14 04:59:38;;;;;;;142.55;136.07;;;18.50;99.90;;;18.99;100.00;100971.13;4936231;29;20218;-77
2022/07/14 05:02:06;;;;;;;136.05;130.45;;;18.60;99.90;;;19.07;100.00;100975.47;4905634;29;20576;-77
2022/07/14 05:04:35;;;;;;;131.13;125.78;;;18.60;99.90;;;19.19;100.00;100982.41;4917659;29;20238;-77
2022/07/14 05:07:06;;;;;;;136.48;130.77;;;18.70;99.90;;;19.34;100.00;100994.66;4918568;29;20214;-77
2022/07/14 05:09:38;;;;;;;174.40;166.90;;;18.80;99.90;;;19.46;100.00;100981.91;4936584;29;20215;-76
2022/07/14 05:12:09;;;;;;;133.05;127.65;;;18.90;99.90;;;19.58;100.00;100980.84;4919051;29;20218;-77
2022/07/14 05:14:38;;;;;;;152.10;145.55;;;19.10;99.90;;;19.68;100.00;100978.88;4916858;29;20620;-78
2022/07/14 05:17:07;;;;;;;154.50;147.88;;;19.10;99.90;;;19.79;100.00;100983.09;4920087;29;20234;-78
2022/07/14 05:19:54;;;;;;;195.98;187.45;;;19.30;99.90;;;19.98;100.00;100990.78;4916884;29;20226;-77
2022/07/14 05:22:23;;;;;;;225.38;216.15;;;19.40;99.90;;;20.15;100.00;100977.88;4922042;29;20214;-78
2022/07/14 05:24:52;;;;;;;222.02;212.23;;;19.60;99.90;;;20.32;100.00;100962.28;4928845;29;20218;-80
2022/07/14 05:27:21;;;;;;;219.85;210.35;;;19.60;99.90;;;20.36;100.00;100941.59;4904128;29;20215;-79
2022/07/14 05:29:50;;;;;;;182.00;173.98;;;19.90;99.90;;;20.39;100.00;100942.44;4901815;29;20215;-79
2022/07/14 05:32:18;;;;;;;143.73;137.73;;;20.00;99.90;;;20.44;100.00;100929.78;4914500;29;20198;-78
2022/07/14 05:34:49;;;;;;;135.95;130.18;;;20.10;99.90;;;20.49;100.00;100923.44;4919304;29;20594;-78
2022/07/14 05:37:19;;;;;;;156.27;149.50;;;20.20;99.90;;;20.56;100.00;100919.66;4932069;29;20245;-78
2022/07/14 05:39:47;;;;;;;165.00;157.50;;;20.20;99.90;;;20.64;100.00;100910.50;4916014;29;20211;-78
2022/07/14 05:42:15;;;;;;;145.02;138.65;;;20.20;99.90;;;20.67;100.00;100894.31;4906411;29;20215;-78
2022/07/14 05:44:42;;;;;;;155.23;148.15;;;20.20;99.90;;;20.73;100.00;100890.56;4917986;29;20243;-79
2022/07/14 05:47:11;;;;;;;123.32;117.63;;;20.20;99.90;;;20.80;100.00;100902.94;4919281;29;20218;-79
2022/07/14 05:49:41;;;;;;;119.07;113.80;;;20.30;99.90;;;20.95;100.00;100896.31;4935598;29;20214;-80
2022/07/14 05:52:13;;;;;;;125.53;120.30;;;20.60;99.90;;;21.26;100.00;100915.22;4936727;29;20206;-78
2022/07/14 05:54:41;;;;;;;134.55;128.60;;;20.70;99.90;;;21.45;99.59;100894.06;4918665;29;20230;-79
2022/07/14 05:57:09;;;;;;;114.28;109.20;;;20.80;99.90;;;21.59;100.00;100910.72;4921124;29;20230;-79
2022/07/14 05:59:37;;;;;;;125.00;119.28;;;21.10;99.90;;;21.65;100.00;100918.63;4924028;29;20211;-79
2022/07/14 06:02:15;;;;;;;118.50;113.13;;;21.10;99.90;;;21.70;100.00;100938.22;4919514;29;20214;-79
2022/07/14 06:04:44;;;;;;;128.30;122.32;;;21.20;99.90;;;21.69;100.00;100921.16;4934484;29;20238;-79
2022/07/14 06:07:13;;;;;;;136.38;130.23;;;21.30;99.90;;;21.81;100.00;100936.09;4919163;29;20221;-80
2022/07/14 06:09:47;;;;;;;150.57;143.80;;;21.40;99.90;;;21.89;100.00;100955.59;4915127;29;20226;-78
2022/07/14 06:12:16;;;;;;;161.98;154.50;;;21.40;99.90;;;22.19;100.00;100963.75;4918817;29;20682;-79
2022/07/14 06:14:45;;;;;;;185.30;176.95;;;21.60;99.90;;;22.46;100.00;100943.16;4915275;29;20619;-79
2022/07/14 06:17:14;;;;;;;182.43;174.30;;;21.80;99.90;;;22.39;100.00;100891.25;4944617;29;20233;-79
2022/07/14 06:19:43;;;;;;;175.18;167.35;;;21.90;99.90;;;22.44;100.00;100878.50;4947859;28;20554;-79
2022/07/14 06:22:12;;;;;;;112.53;107.55;;;22.00;99.90;;;22.58;100.00;100889.72;4938880;29;20207;-78
2022/07/14 06:24:41;;;;;;;118.18;113.03;;;22.00;99.90;;;22.70;100.00;100876.75;4918365;29;20227;-79
2022/07/14 06:27:17;;;;;;;93.38;89.13;;;22.20;99.90;;;22.65;99.48;100845.44;4918828;29;20241;-79
2022/07/14 06:29:49;;;;;;;95.03;90.63;;;22.20;99.90;;;22.84;98.15;100847.53;4916726;29;20215;-78
2022/07/14 06:32:18;;;;;;;92.93;88.80;;;22.40;99.90;;;23.01;100.00;100879.31;4932979;29;20225;-81
2022/07/14 06:34:48;;;;;;;98.53;94.10;;;22.50;99.90;;;22.96;99.78;100861.47;4915038;29;20242;-78
2022/07/14 06:37:21;;;;;;;75.05;71.32;;;22.60;99.90;;;22.89;96.79;100823.97;4918247;29;20242;-77
2022/07/14 06:39:49;;;;;;;64.82;61.83;;;22.60;99.90;;;22.90;97.55;100823.94;4918631;29;20722;-78
2022/07/14 06:42:18;;;;;;;58.28;55.72;;;22.70;99.90;;;22.96;97.98;100833.63;4917293;29;20664;-77
2022/07/14 06:45:06;;;;;;;67.03;63.53;;;22.60;99.90;;;23.14;95.88;100819.47;4930586;29;20637;-79
2022/07/14 06:47:34;;;;;;;56.05;53.50;;;22.80;99.90;;;23.39;93.67;100807.75;4927862;29;20214;-79
2022/07/14 06:50:03;;;;;;;45.50;43.10;;;22.90;99.90;;;23.36;93.55;100773.66;4914179;29;20207;-79
2022/07/14 06:52:31;;;;;;;52.38;49.97;;;23.00;99.90;;;23.48;93.32;100788.53;4911137;29;20218;-79
2022/07/14 06:55:01;;;;;;;62.67;59.92;;;23.20;99.90;;;23.83;92.83;100792.59;4921318;29;20237;-79
2022/07/14 06:57:29;;;;;;;73.47;70.07;;;23.50;99.90;;;23.77;95.03;100787.44;4923756;29;20230;-79
2022/07/14 06:59:57;;;;;;;79.30;75.70;;;23.60;99.90;;;23.83;95.30;100793.47;4934573;29;20210;-79
2022/07/14 07:02:25;;;;;;;86.15;82.18;;;23.80;99.90;;;23.82;93.50;100761.13;4934394;29;20226;-79
2022/07/14 07:07:40;;;;;;;95.60;91.28;;;24.00;99.90;;;24.12;94.66;100775.19;4917868;29;20218;-79
2022/07/14 07:10:08;;;;;;;100.85;96.35;;;24.10;99.90;;;24.22;93.43;100760.34;4924483;29;20202;-79
2022/07/14 07:12:36;;;;;;;86.45;82.25;;;24.20;99.90;;;24.41;91.37;100736.16;4925749;29;20206;-79
2022/07/14 07:15:05;;;;;;;63.50;60.58;;;24.30;99.90;;;24.41;91.28;100725.34;4922714;29;20246;-79
2022/07/14 07:17:33;;;;;;;97.68;92.90;;;24.40;99.90;;;24.84;87.50;100705.41;4927982;29;20239;-79
2022/07/14 07:20:01;;;;;;;89.07;84.93;;;24.60;99.90;;;25.14;87.40;100708.56;4931060;29;20206;-79
2022/07/14 07:22:29;;;;;;;69.57;66.40;;;24.70;99.90;;;24.91;86.63;100641.06;4921781;29;20574;-79
2022/07/14 07:24:57;;;;;;;79.95;76.30;;;24.90;99.90;;;24.69;86.23;100601.47;4934116;29;20237;-79
2022/07/14 07:27:25;;;;;;;78.63;74.88;;;24.90;99.90;;;25.25;85.23;100648.50;4928652;29;20221;-79
2022/07/14 07:29:53;;;;;;;96.22;91.68;;;25.00;99.90;;;25.22;84.91;100610.75;4917894;29;20211;-78
2022/07/14 07:32:22;;;;;;;103.13;98.32;;;25.20;99.90;;;24.76;86.10;100557.00;4934695;29;20217;-79
2022/07/14 07:34:49;;;;;;;85.07;81.13;;;25.00;99.90;;;25.19;85.34;100606.38;4933393;29;20229;-79
2022/07/14 07:37:17;;;;;;;70.32;66.97;;;25.20;99.90;;;25.36;84.56;100603.72;4934634;29;20225;-79
2022/07/14 07:39:58;;;;;;;78.40;74.72;;;25.40;99.90;;;26.10;82.14;100612.63;4924741;29;20221;-79
2022/07/14 07:42:26;;;;;;;86.40;82.40;;;25.80;99.90;;;26.19;81.46;100578.72;4943047;29;20209;-79
2022/07/14 07:44:55;;;;;;;71.93;68.63;;;26.00;99.90;;;25.26;82.19;100463.47;4929266;29;20226;-79
2022/07/14 07:47:23;;;;;;;87.20;83.07;;;25.60;99.90;;;25.59;84.00;100526.72;4935397;29;20585;-79
2022/07/14 07:49:52;;;;;;;92.20;87.75;;;25.70;99.90;;;26.07;83.47;100569.41;4933128;29;20216;-79
2022/07/14 07:52:21;;;;;;;94.85;90.40;;;25.80;99.90;;;25.68;78.84;100447.75;4934064;29;20218;-79
2022/07/14 07:54:50;;;;;;;95.43;90.80;;;25.80;99.90;;;25.57;78.00;100405.91;4932213;29;20230;-80
2022/07/14 07:57:38;;;;;;;77.40;73.53;;;25.60;99.90;;;25.53;79.95;100408.78;4933513;29;20234;-79
2022/07/14 08:00:07;;;;;;;73.35;70.13;;;25.60;99.90;;;26.06;78.53;100451.13;4931809;29;20209;-79
2022/07/14 08:02:49;;;;;;;91.25;86.78;;;26.00;99.90;;;26.28;78.18;100447.22;4928979;29;20219;-79
2022/07/14 08:05:20;;;;;;;88.40;84.15;;;26.40;99.90;;;26.15;77.93;100398.25;4925109;29;20229;-79
2022/07/14 08:08:08;;;;;;;94.00;89.45;;;26.60;99.90;;;26.13;78.65;100383.91;4933717;29;20593;-79
2022/07/14 08:10:38;;;;;;;89.43;85.13;;;26.60;99.90;;;26.16;80.27;100405.41;4914008;29;20221;-80
2022/07/14 08:13:07;;;;;;;99.72;95.13;;;26.50;99.90;;;26.06;80.23;100382.50;4932966;29;20206;-79
2022/07/14 08:15:37;;;;;;;88.65;84.00;;;26.40;99.90;;;26.42;78.98;100395.84;4927481;29;20246;-79
2022/07/14 08:18:05;;;;;;;85.22;80.88;;;26.70;99.90;;;26.41;75.47;100315.44;4915544;29;20234;-79
2022/07/14 08:20:34;;;;;;;105.03;99.55;;;26.90;99.90;;;26.30;75.79;100302.47;4937382;29;20212;-79
2022/07/14 08:23:03;;;;;;;84.20;80.05;;;26.50;99.90;;;26.54;74.78;100305.63;4937429;29;20225;-79
2022/07/14 08:25:33;;;;;;;89.57;85.25;;;26.30;99.90;;;27.25;74.98;100362.88;4934215;29;20226;-80
2022/07/14 08:28:01;;;;;;;88.75;84.30;;;26.80;99.90;;;27.06;74.24;100300.69;4927488;29;20209;-79
2022/07/14 08:30:29;;;;;;;100.93;95.90;;;27.10;99.90;;;26.63;73.51;100222.84;4921536;29;20210;-79
2022/07/14 08:32:58;;;;;;;95.63;90.72;;;26.90;99.90;;;27.19;72.95;100280.94;4926626;29;20233;-79
2022/07/14 08:35:27;;;;;;;97.13;92.38;;;27.20;99.90;;;27.25;73.33;100253.41;4919362;29;20231;-79
2022/07/14 08:37:56;;;;;;;85.00;80.70;;;27.50;99.90;;;27.46;74.05;100264.78;4932061;29;20588;-79
2022/07/14 08:40:26;;;;;;;125.57;119.38;;;27.70;99.90;;;27.49;73.09;100251.88;4926182;29;20217;-79
2022/07/14 08:42:56;;;;;;;132.23;125.32;;;27.50;99.90;;;27.35;72.52;100176.72;4937190;29;20197;-79
2022/07/14 08:45:26;;;;;;;168.50;159.75;;;27.80;99.90;;;28.40;72.59;100293.97;4934856;29;20225;-80
2022/07/14 08:47:55;;;;;;;180.65;170.75;;;28.30;99.90;;;28.60;74.35;100300.78;4936773;29;20213;-80
2022/07/14 08:50:26;;;;;;;215.00;203.20;;;29.00;99.90;;;29.59;72.03;100334.78;4936808;29;20686;-80
2022/07/14 08:52:54;;;;;;;179.85;170.02;;;29.50;99.90;;;28.78;69.70;100158.03;4937529;29;20210;-79
2022/07/14 08:55:21;;;;;;;184.88;174.65;;;29.60;99.90;;;28.54;72.67;100162.44;4910917;29;20230;-80
2022/07/14 08:57:49;;;;;;;157.73;148.30;;;29.60;99.90;;;27.96;70.16;100058.56;4919588;29;20230;-81
2022/07/14 09:00:19;;;;;;;182.68;172.43;;;29.20;99.90;;;28.72;69.62;100136.69;4937048;29;20209;-79
2022/07/14 09:02:53;;;;;;;178.43;168.60;;;29.10;99.90;;;29.12;69.62;100161.97;4928868;29;20210;-80
2022/07/14 09:05:41;;;;;;;208.48;196.75;;;29.70;99.90;;;29.25;69.28;100102.03;4937070;29;20222;-80
2022/07/14 09:08:11;;;;;;;157.77;149.07;;;30.20;99.90;;;29.12;70.99;100099.34;4937525;29;20206;-80
2022/07/14 09:10:43;;;;;;;176.13;166.02;;;30.40;99.90;;;29.42;71.18;100137.06;4933128;29;20213;-80
2022/07/14 09:13:33;;;;;;;238.82;225.05;;;30.80;99.90;;;29.31;69.94;100077.06;4932852;29;20227;-79
2022/07/14 09:16:23;;;;;;;190.65;179.68;;;31.10;99.90;;;28.47;71.47;99976.16;4931447;29;20261;-80
2022/07/14 09:19:14;;;;;;;299.23;281.50;;;30.30;99.90;;;29.70;70.59;100110.50;4934999;29;20252;-80
2022/07/14 09:21:55;;;;;;;163.85;154.65;;;30.60;99.90;;;28.71;70.31;99968.97;4934818;29;20221;-80
2022/07/14 09:24:23;;;;;;;104.47;98.28;;;30.30;99.90;;;29.19;68.48;99999.88;4935483;29;20209;-80
2022/07/14 09:26:53;;;;;;;131.25;123.55;;;30.30;99.90;;;31.30;66.59;100141.66;4936655;29;20213;-80
2022/07/14 09:29:26;;;;;;;283.48;266.80;;;31.20;99.90;;;30.74;66.64;100055.09;4927980;29;20221;-80
2022/07/14 09:31:54;;;;;;;228.05;214.55;;;31.70;99.90;;;29.98;68.35;99959.34;4935735;29;20218;-80
2022/07/14 09:34:31;;;;;;;247.77;232.90;;;31.50;99.90;;;30.32;67.06;99991.16;4936191;29;20217;-80
2022/07/14 09:37:18;;;;;;;204.73;192.88;;;31.20;99.90;;;29.96;66.32;99902.22;4937320;29;20213;-80
2022/07/14 09:39:57;;;;;;;194.23;181.80;;;31.50;99.90;;;30.02;66.77;99888.13;4929507;29;20216;-80
2022/07/14 09:42:57;;;;;;;210.88;198.43;;;31.70;99.90;;;30.50;67.71;99959.66;4933711;29;20220;-80
2022/07/14 09:45:38;;;;;;;298.83;280.45;;;31.70;99.90;;;29.95;65.29;99810.53;4925355;29;20225;-80
2022/07/14 09:48:11;;;;;;;311.80;293.02;;;32.30;99.90;;;30.45;66.11;99888.25;4937334;29;20665;-80
2022/07/14 09:50:56;;;;;;;241.95;227.50;;;32.60;99.90;;;29.60;65.28;99742.47;4936795;29;20693;-80
2022/07/14 09:53:35;;;;;;;224.07;210.70;;;31.70;99.90;;;31.00;64.88;99891.00;4928919;29;20216;-80
2022/07/14 09:56:10;;;;;;;208.82;196.50;;;32.20;99.90;;;30.83;66.38;99865.09;4936339;29;20591;-80
2022/07/14 09:58:44;;;;;;;233.40;219.40;;;32.80;99.90;;;31.06;66.59;99895.94;4936677;29;20228;-80
2022/07/14 10:01:15;;;;;;;216.40;203.18;;;33.00;99.90;;;30.13;67.29;99773.59;4934897;29;20296;-80
2022/07/14 10:03:47;;;;;;;244.18;229.38;;;32.40;99.90;;;31.33;65.83;99895.50;4933133;29;20232;-80
2022/07/14 10:06:27;;;;;;;218.30;205.40;;;32.80;99.90;;;30.19;65.08;99723.13;4936061;29;20236;-80
2022/07/14 10:09:06;;;;;;;203.32;191.15;;;32.10;99.90;;;30.82;64.78;99796.00;4936239;29;20198;-79
2022/07/14 10:11:38;;;;;;;258.38;242.35;;;32.00;99.90;;;30.71;65.00;99782.38;4919093;29;20206;-81
2022/07/14 10:14:06;;;;;;;217.93;203.65;;;32.20;99.90;;;31.04;65.29;99810.53;4913914;29;20202;-80